createdAt,value
2018-12-20T00:02:12.714Z,7.90
2018-12-20T00:04:41.819Z,8.00
2018-12-20T00:07:10.802Z,8.00
2018-12-20T00:09:39.738Z,8.10
2018-12-20T00:12:08.671Z,8.10
2018-12-20T00:14:37.657Z,8.00
2018-12-20T00:17:12.059Z,8.10
2018-12-20T00:19:41.783Z,8.00
2018-12-20T00:22:12.313Z,7.90
2018-12-20T00:24:42.385Z,7.90
2018-12-20T00:27:11.814Z,8.00
2018-12-20T00:29:40.692Z,8.10
2018-12-20T00:32:09.951Z,8.00
2018-12-20T00:34:39.067Z,8.00
2018-12-20T00:37:07.989Z,8.10
2018-12-20T00:39:37.081Z,8.10
2018-12-20T00:42:06.468Z,8.20
2018-12-20T00:44:37.502Z,8.10
2018-12-20T00:47:06.235Z,8.20
2018-12-20T00:49:35.255Z,8.10
2018-12-20T00:52:04.358Z,8.20
2018-12-20T00:54:33.221Z,8.20
2018-12-20T00:57:02.195Z,8.10
2018-12-20T00:59:31.134Z,8.20
2018-12-20T01:02:00.019Z,8.10
2018-12-20T01:04:28.857Z,8.10
2018-12-20T01:06:58.741Z,8.00
2018-12-20T01:09:27.760Z,8.20
2018-12-20T01:11:56.946Z,8.20
2018-12-20T01:14:25.961Z,8.30
2018-12-20T01:16:55.044Z,8.40
2018-12-20T01:19:25.731Z,8.30
2018-12-20T01:21:54.975Z,8.30
2018-12-20T01:24:24.507Z,8.40
2018-12-20T01:26:53.437Z,8.40
2018-12-20T01:29:22.406Z,8.30
2018-12-20T01:31:51.309Z,8.20
2018-12-20T01:34:20.354Z,8.10
2018-12-20T01:36:49.388Z,8.30
2018-12-20T01:39:18.451Z,8.20
2018-12-20T01:41:47.417Z,8.20
2018-12-20T01:44:16.437Z,8.10
2018-12-20T01:46:45.343Z,8.10
2018-12-20T01:49:14.881Z,8.20
2018-12-20T01:51:43.910Z,8.20
2018-12-20T01:54:12.908Z,8.30
2018-12-20T01:56:41.782Z,8.10
2018-12-20T01:59:10.655Z,8.10
2018-12-20T02:01:39.779Z,8.10
2018-12-20T02:04:08.859Z,8.20
2018-12-20T02:06:39.289Z,8.20
2018-12-20T02:09:09.526Z,8.20
2018-12-20T02:11:38.528Z,8.30
2018-12-20T02:14:07.401Z,8.20
2018-12-20T02:16:36.415Z,8.30
2018-12-20T02:19:05.457Z,8.40
2018-12-20T02:21:34.294Z,8.30
2018-12-20T02:24:03.861Z,8.40
2018-12-20T02:26:32.872Z,8.40
2018-12-20T02:29:03.136Z,8.50
2018-12-20T02:31:31.999Z,8.50
2018-12-20T02:34:01.385Z,8.40
2018-12-20T02:36:30.714Z,8.60
2018-12-20T02:38:59.988Z,8.50
2018-12-20T02:41:29.440Z,8.50
2018-12-20T02:43:58.332Z,8.50
2018-12-20T02:46:28.106Z,8.40
2018-12-20T02:48:58.466Z,8.50
2018-12-20T02:51:28.720Z,8.50
2018-12-20T02:53:57.657Z,8.50
2018-12-20T02:56:26.721Z,8.40
2018-12-20T02:58:56.499Z,8.50
2018-12-20T03:01:25.520Z,8.70
2018-12-20T03:03:54.406Z,8.50
2018-12-20T03:06:24.034Z,8.40
2018-12-20T03:08:53.028Z,8.40
2018-12-20T03:11:22.181Z,8.50
2018-12-20T03:13:51.291Z,8.30
2018-12-20T03:16:20.468Z,8.20
2018-12-20T03:18:50.326Z,8.20
2018-12-20T03:21:19.280Z,8.20
2018-12-20T03:23:48.131Z,8.10
2018-12-20T03:26:17.059Z,8.10
2018-12-20T03:28:45.930Z,8.20
2018-12-20T03:31:15.034Z,8.20
2018-12-20T03:33:44.196Z,8.20
2018-12-20T03:36:13.053Z,8.10
2018-12-20T03:38:41.994Z,8.10
2018-12-20T03:41:11.133Z,8.10
2018-12-20T03:43:40.214Z,8.10
2018-12-20T03:46:09.428Z,7.90
2018-12-20T03:48:38.646Z,8.00
2018-12-20T03:51:07.591Z,8.00
2018-12-20T03:53:36.759Z,8.00
2018-12-20T03:56:06.797Z,7.90
2018-12-20T03:58:35.969Z,8.10
2018-12-20T04:01:05.072Z,8.00
2018-12-20T04:03:34.376Z,8.00
2018-12-20T04:06:03.790Z,8.10
2018-12-20T04:08:32.724Z,8.10
2018-12-20T04:11:02.448Z,8.00
2018-12-20T04:13:31.558Z,8.00
2018-12-20T04:16:00.671Z,8.00
2018-12-20T04:18:29.961Z,7.90
2018-12-20T04:20:59.101Z,7.90
2018-12-20T04:23:29.034Z,7.90
2018-12-20T04:25:58.108Z,7.80
2018-12-20T04:28:26.989Z,7.90
2018-12-20T04:30:56.118Z,7.80
2018-12-20T04:33:25.363Z,7.80
2018-12-20T04:35:54.836Z,7.80
2018-12-20T04:38:24.063Z,7.90
2018-12-20T04:40:53.026Z,7.80
2018-12-20T04:43:22.631Z,7.80
2018-12-20T04:45:51.598Z,7.90
2018-12-20T04:48:27.071Z,7.90
2018-12-20T04:50:56.216Z,7.90
2018-12-20T04:53:27.036Z,7.90
2018-12-20T04:55:57.076Z,7.90
2018-12-20T04:58:26.207Z,7.90
2018-12-20T05:00:55.718Z,7.80
2018-12-20T05:03:24.842Z,7.80
2018-12-20T05:05:53.800Z,7.80
2018-12-20T05:08:22.826Z,7.80
2018-12-20T05:10:51.962Z,7.90
2018-12-20T05:13:21.037Z,8.00
2018-12-20T05:15:55.973Z,8.00
2018-12-20T05:18:20.810Z,8.00
2018-12-20T05:20:49.893Z,8.00
2018-12-20T05:23:18.807Z,7.90
2018-12-20T05:25:47.946Z,8.00
2018-12-20T05:28:17.260Z,7.90
2018-12-20T05:30:46.267Z,7.80
2018-12-20T05:33:15.172Z,7.90
2018-12-20T05:35:44.065Z,7.80
2018-12-20T05:38:12.978Z,7.80
2018-12-20T05:40:42.493Z,7.90
2018-12-20T05:43:11.455Z,7.90
2018-12-20T05:45:41.047Z,7.80
2018-12-20T05:48:10.157Z,7.80
2018-12-20T05:50:39.214Z,7.90
2018-12-20T05:53:08.114Z,7.70
2018-12-20T05:55:38.066Z,7.70
2018-12-20T05:58:06.996Z,7.70
2018-12-20T06:00:35.944Z,7.80
2018-12-20T06:03:04.893Z,7.80
2018-12-20T06:05:33.801Z,7.80
2018-12-20T06:08:03.117Z,7.80
2018-12-20T06:10:32.063Z,7.80
2018-12-20T06:13:01.597Z,7.80
2018-12-20T06:15:31.089Z,7.80
2018-12-20T06:18:00.028Z,7.70
2018-12-20T06:20:29.015Z,7.80
2018-12-20T06:22:57.961Z,7.80
2018-12-20T06:25:26.835Z,7.90
2018-12-20T06:27:55.691Z,7.90
2018-12-20T06:30:24.771Z,7.90
2018-12-20T06:32:53.646Z,7.80
2018-12-20T06:35:22.477Z,7.80
2018-12-20T06:37:52.754Z,7.80
2018-12-20T06:40:21.630Z,7.80
2018-12-20T06:42:50.486Z,7.90
2018-12-20T06:45:19.503Z,7.80
2018-12-20T06:47:48.398Z,7.90
2018-12-20T06:50:17.340Z,7.90
2018-12-20T06:52:46.188Z,7.90
2018-12-20T06:55:15.929Z,7.90
2018-12-20T06:57:44.933Z,7.90
2018-12-20T07:00:13.754Z,8.10
2018-12-20T07:02:42.709Z,8.10
2018-12-20T07:05:11.596Z,8.10
2018-12-20T07:07:40.772Z,8.20
2018-12-20T07:10:09.885Z,8.10
2018-12-20T07:12:39.576Z,8.10
2018-12-20T07:15:09.928Z,8.20
2018-12-20T07:17:38.811Z,8.10
2018-12-20T07:20:08.075Z,8.20
2018-12-20T07:22:36.970Z,8.10
2018-12-20T07:25:06.341Z,8.00
2018-12-20T07:27:36.346Z,8.00
2018-12-20T07:30:07.121Z,8.10
2018-12-20T07:32:36.015Z,8.10
2018-12-20T07:35:06.286Z,8.10
2018-12-20T07:37:35.285Z,8.10
2018-12-20T07:40:05.181Z,8.00
2018-12-20T07:42:34.036Z,8.00
2018-12-20T07:45:02.935Z,8.00
2018-12-20T07:47:31.858Z,8.00
2018-12-20T07:50:00.765Z,8.00
2018-12-20T07:52:29.634Z,8.00
2018-12-20T07:54:58.580Z,8.00
2018-12-20T07:57:27.454Z,8.00
2018-12-20T07:59:56.474Z,8.00
2018-12-20T08:02:25.341Z,8.00
2018-12-20T08:04:54.414Z,8.00
2018-12-20T08:07:25.457Z,8.10
2018-12-20T08:09:54.290Z,8.20
2018-12-20T08:12:23.952Z,8.20
2018-12-20T08:14:52.843Z,8.30
2018-12-20T08:17:21.806Z,8.30
2018-12-20T08:19:50.697Z,8.40
2018-12-20T08:22:19.579Z,8.40
2018-12-20T08:24:48.582Z,8.30
2018-12-20T08:27:17.482Z,8.20
2018-12-20T08:29:47.321Z,8.30
2018-12-20T08:32:16.569Z,8.20
2018-12-20T08:34:45.478Z,8.30
2018-12-20T08:37:14.419Z,8.10
2018-12-20T08:39:44.119Z,8.30
2018-12-20T08:42:12.970Z,8.40
2018-12-20T08:44:42.491Z,8.50
2018-12-20T08:47:11.362Z,8.50
2018-12-20T08:49:40.232Z,8.40
2018-12-20T08:52:09.111Z,8.20
2018-12-20T08:54:38.003Z,8.30
2018-12-20T08:57:07.042Z,8.20
2018-12-20T08:59:35.965Z,8.20
2018-12-20T09:02:04.902Z,8.30
2018-12-20T09:04:33.807Z,8.30
2018-12-20T09:07:03.054Z,8.30
2018-12-20T09:09:32.733Z,8.40
2018-12-20T09:12:02.241Z,8.60
2018-12-20T09:14:31.136Z,8.70
2018-12-20T09:17:03.116Z,8.60
2018-12-20T09:19:30.850Z,8.60
2018-12-20T09:21:59.828Z,8.70
2018-12-20T09:24:28.701Z,8.70
2018-12-20T09:26:58.234Z,8.60
2018-12-20T09:29:27.705Z,8.70
2018-12-20T09:31:57.796Z,8.60
2018-12-20T09:34:27.415Z,8.60
2018-12-20T09:36:56.279Z,8.60
2018-12-20T09:39:25.146Z,8.70
2018-12-20T09:41:54.120Z,8.70
2018-12-20T09:44:22.998Z,8.60
2018-12-20T09:46:53.966Z,8.60
2018-12-20T09:49:22.867Z,8.60
2018-12-20T09:51:51.928Z,8.60
2018-12-20T09:54:20.827Z,8.70
2018-12-20T09:56:49.788Z,8.70
2018-12-20T09:59:18.647Z,8.80
2018-12-20T10:01:47.588Z,8.80
2018-12-20T10:04:16.493Z,8.80
2018-12-20T10:06:45.394Z,8.70
2018-12-20T10:09:14.283Z,8.70
2018-12-20T10:11:43.183Z,8.70
2018-12-20T10:14:12.319Z,8.70
2018-12-20T10:16:41.176Z,8.70
2018-12-20T10:19:10.037Z,8.70
2018-12-20T10:21:38.911Z,8.90
2018-12-20T10:24:07.778Z,8.90
2018-12-20T10:26:36.715Z,8.90
2018-12-20T10:29:05.601Z,8.80
2018-12-20T10:31:34.483Z,8.90
2018-12-20T10:34:03.605Z,8.90
2018-12-20T10:36:32.467Z,9.00
2018-12-20T10:39:01.438Z,8.90
2018-12-20T10:41:30.287Z,8.90
2018-12-20T10:43:59.170Z,9.00
2018-12-20T10:46:28.051Z,9.00
2018-12-20T10:48:56.914Z,9.10
2018-12-20T10:51:26.096Z,9.00
2018-12-20T10:53:54.932Z,8.90
2018-12-20T14:47:46.635Z,8.70
2018-12-20T14:50:15.685Z,8.80
2018-12-20T14:52:44.624Z,8.80
2018-12-20T14:55:13.651Z,8.80
2018-12-20T14:57:42.511Z,8.80
2018-12-20T15:00:12.182Z,8.90
2018-12-20T15:02:41.210Z,8.90
2018-12-20T15:05:10.218Z,8.80
2018-12-20T15:07:39.211Z,8.90
2018-12-20T15:10:09.608Z,8.80
2018-12-20T15:12:38.539Z,8.70
2018-12-20T15:15:08.901Z,8.60
2018-12-20T15:17:37.984Z,8.60
2018-12-20T15:20:08.766Z,8.60
2018-12-20T15:22:37.701Z,8.70
2018-12-20T15:25:06.817Z,8.70
2018-12-20T15:27:35.895Z,8.70
2018-12-20T15:30:05.711Z,8.70
2018-12-20T15:32:34.573Z,8.70
2018-12-20T15:35:04.030Z,8.60
2018-12-20T15:37:32.988Z,8.70
2018-12-20T15:40:02.253Z,8.70
2018-12-20T15:42:31.459Z,8.70
2018-12-20T15:45:00.699Z,8.70
2018-12-20T15:47:29.876Z,8.70
2018-12-20T15:49:59.779Z,8.60
2018-12-20T15:52:28.744Z,8.60
2018-12-20T15:54:57.656Z,8.70
2018-12-20T15:57:26.625Z,8.70
2018-12-20T15:59:55.675Z,8.80
2018-12-20T16:02:24.727Z,8.80
2018-12-20T16:04:54.312Z,8.70
2018-12-20T16:07:23.580Z,8.70
2018-12-20T16:09:52.539Z,8.70
2018-12-20T16:12:21.737Z,8.80
2018-12-20T16:14:50.720Z,8.70
2018-12-20T16:17:19.635Z,8.70
2018-12-20T16:19:48.579Z,8.80
2018-12-20T16:22:17.510Z,8.70
2018-12-20T16:24:46.452Z,8.80
2018-12-20T16:27:15.607Z,8.90
2018-12-20T16:29:44.557Z,8.90
2018-12-20T16:32:14.516Z,9.00
2018-12-20T16:34:43.458Z,9.00
